createdAt,value
2022-10-11T00:00:26.244Z,95.61
2022-10-11T00:03:28.497Z,95.21
2022-10-11T00:06:30.841Z,95.16
2022-10-11T00:09:33.116Z,95.40
2022-10-11T00:12:36.422Z,95.53
2022-10-11T00:15:39.877Z,96.20
2022-10-11T00:18:42.689Z,96.61
2022-10-11T00:21:45.189Z,96.17
2022-10-11T00:24:47.363Z,95.35
2022-10-11T00:27:49.532Z,95.45
2022-10-11T00:30:51.726Z,95.74
2022-10-11T00:33:54.609Z,96.45
2022-10-11T00:36:57.155Z,96.53
2022-10-11T00:39:59.481Z,96.78
2022-10-11T00:43:01.918Z,97.11
2022-10-11T00:46:06.563Z,97.07
2022-10-11T00:49:32.972Z,96.87
2022-10-11T00:52:40.463Z,96.69
2022-10-11T00:55:51.883Z,95.85
2022-10-11T00:58:56.297Z,95.72
2022-10-11T01:01:58.524Z,95.99
2022-10-11T01:05:27.767Z,96.86
2022-10-11T01:08:24.562Z,96.42
2022-10-11T01:11:29.860Z,96.93
2022-10-11T01:14:36.615Z,97.67
2022-10-11T01:17:56.675Z,97.56
2022-10-11T01:21:16.756Z,96.97
2022-10-11T01:24:42.364Z,96.74
2022-10-11T01:27:48.500Z,96.74
2022-10-11T01:30:51.871Z,97.10
2022-10-11T01:34:08.043Z,98.53
2022-10-11T01:37:31.336Z,98.87
2022-10-11T01:40:39.280Z,98.96
2022-10-11T01:43:42.673Z,98.50
2022-10-11T01:46:44.873Z,98.14
2022-10-11T01:49:53.558Z,97.59
2022-10-11T01:52:59.919Z,98.03
2022-10-11T01:56:20.754Z,97.79
2022-10-11T02:00:03.911Z,97.48
2022-10-11T02:03:23.387Z,96.65
2022-10-11T02:06:39.918Z,96.56
2022-10-11T02:09:48.135Z,97.00
2022-10-11T02:12:59.515Z,96.72
2022-10-11T02:16:06.705Z,96.96
2022-10-11T02:19:19.756Z,97.08
2022-10-11T02:22:35.623Z,97.81
2022-10-11T02:25:37.905Z,97.85
2022-10-11T02:28:42.585Z,97.81
2022-10-11T02:31:45.671Z,97.97
2022-10-11T02:34:53.603Z,97.86
2022-10-11T02:38:01.975Z,97.77
2022-10-11T02:41:27.327Z,97.46
2022-10-11T02:44:36.947Z,97.81
2022-10-11T02:47:40.768Z,97.35
2022-10-11T02:50:43.540Z,97.45
2022-10-11T02:53:46.591Z,98.18
2022-10-11T02:56:48.760Z,98.41
2022-10-11T02:59:50.921Z,97.81
2022-10-11T03:02:53.145Z,97.77
2022-10-11T03:06:00.283Z,98.17
2022-10-11T03:09:02.472Z,97.98
2022-10-11T03:12:04.885Z,97.85
2022-10-11T03:15:07.602Z,97.83
2022-10-11T03:18:09.776Z,97.98
2022-10-11T03:21:11.961Z,97.42
2022-10-11T03:24:14.137Z,97.32
2022-10-11T03:27:16.458Z,97.20
2022-10-11T03:30:20.149Z,97.17
2022-10-11T03:33:22.412Z,97.27
2022-10-11T03:36:24.572Z,97.47
2022-10-11T03:39:26.751Z,96.99
2022-10-11T03:42:29.723Z,96.79
2022-10-11T03:45:31.896Z,97.16
2022-10-11T03:48:34.239Z,97.22
2022-10-11T03:51:36.537Z,97.73
2022-10-11T03:54:38.752Z,97.01
2022-10-11T03:57:41.530Z,97.72
2022-10-11T04:00:43.709Z,97.60
2022-10-11T04:03:45.890Z,97.64
2022-10-11T04:06:48.095Z,98.27
2022-10-11T04:09:53.650Z,98.04
2022-10-11T04:12:55.802Z,97.80
2022-10-11T04:15:58.055Z,97.61
2022-10-11T04:19:00.211Z,96.50
2022-10-11T04:22:02.677Z,96.22
2022-10-11T04:25:06.324Z,96.50
2022-10-11T04:28:09.264Z,96.35
2022-10-11T04:31:11.485Z,96.36
2022-10-11T04:34:14.048Z,97.29
2022-10-11T04:37:16.232Z,97.82
2022-10-11T04:40:18.498Z,97.75
2022-10-11T04:43:20.667Z,97.24
2022-10-11T04:46:23.237Z,96.80
2022-10-11T04:49:25.472Z,96.68
2022-10-11T04:52:27.749Z,96.80
2022-10-11T04:55:29.966Z,96.53
2022-10-11T04:58:34.464Z,96.83
2022-10-11T05:01:36.858Z,96.49
2022-10-11T05:04:39.067Z,96.13
2022-10-11T05:07:41.221Z,96.22
2022-10-11T05:10:43.490Z,96.90
2022-10-11T05:13:46.314Z,97.08
2022-10-11T05:16:48.543Z,98.17
2022-10-11T05:19:50.687Z,98.81
2022-10-11T05:22:52.861Z,98.03
2022-10-11T05:25:55.167Z,97.47
2022-10-11T05:28:57.476Z,96.88
2022-10-11T05:31:59.727Z,96.12
2022-10-11T05:35:01.965Z,95.54
2022-10-11T05:38:04.151Z,95.18
2022-10-11T05:41:09.069Z,94.49
2022-10-11T05:44:11.370Z,94.75
2022-10-11T05:47:13.652Z,94.82
2022-10-11T05:50:18.727Z,94.95
2022-10-11T05:53:26.065Z,94.17
2022-10-11T05:56:28.294Z,94.49
2022-10-11T05:59:35.620Z,94.40
2022-10-11T06:02:37.854Z,93.84
2022-10-11T06:05:44.021Z,93.40
2022-10-11T06:08:47.118Z,93.89
2022-10-11T06:11:52.037Z,93.34
2022-10-11T06:14:57.505Z,92.64
2022-10-11T06:18:04.097Z,92.29
2022-10-11T06:21:07.624Z,91.63
2022-10-11T06:24:15.542Z,91.07
2022-10-11T06:27:20.906Z,91.10
2022-10-11T06:30:26.493Z,91.03
2022-10-11T06:33:28.995Z,91.66
2022-10-11T06:36:35.482Z,90.87
2022-10-11T06:39:37.960Z,89.85
2022-10-11T06:42:50.606Z,89.90
2022-10-11T06:45:53.241Z,90.46
2022-10-11T06:48:56.609Z,90.84
2022-10-11T06:52:06.129Z,90.18
2022-10-11T06:55:13.823Z,90.25
2022-10-11T06:58:16.483Z,90.51
2022-10-11T07:01:22.585Z,90.11
2022-10-11T07:04:27.551Z,90.08
2022-10-11T07:07:36.567Z,88.61
2022-10-11T07:10:41.951Z,89.11
2022-10-11T07:13:50.424Z,88.87
2022-10-11T07:16:52.975Z,88.90
2022-10-11T07:19:57.931Z,88.65
2022-10-11T07:23:01.127Z,89.56
2022-10-11T07:26:04.627Z,88.89
2022-10-11T07:29:08.992Z,89.04
2022-10-11T07:32:27.524Z,88.61
2022-10-11T07:35:29.831Z,87.34
2022-10-11T07:38:34.784Z,87.71
2022-10-11T07:41:43.171Z,87.20
2022-10-11T07:44:50.029Z,86.84
2022-10-11T07:47:52.309Z,86.01
2022-10-11T07:51:08.422Z,85.16
2022-10-11T07:54:10.848Z,84.75
2022-10-11T07:57:18.784Z,84.16
2022-10-11T08:00:25.614Z,83.70
2022-10-11T08:03:27.807Z,83.55
2022-10-11T08:06:32.890Z,83.89
2022-10-11T08:09:35.264Z,83.34
2022-10-11T08:12:38.911Z,83.69
2022-10-11T08:15:47.886Z,83.38
2022-10-11T08:18:55.564Z,83.12
2022-10-11T08:21:58.096Z,83.34
2022-10-11T08:25:00.370Z,82.90
2022-10-11T08:28:02.640Z,82.82
2022-10-11T08:31:05.482Z,79.17
2022-10-11T08:34:10.239Z,76.00
2022-10-11T08:37:15.623Z,71.12
2022-10-11T08:40:21.060Z,68.75
2022-10-11T08:43:48.196Z,67.67
2022-10-11T08:47:00.624Z,67.69
2022-10-11T08:50:06.952Z,67.69
2022-10-11T08:53:28.589Z,63.44
2022-10-11T08:56:35.069Z,61.06
2022-10-11T08:59:54.065Z,58.27
2022-10-11T09:03:28.477Z,61.31
2022-10-11T09:07:04.772Z,60.40
2022-10-11T09:10:38.268Z,61.79
2022-10-11T09:13:54.625Z,64.80
2022-10-11T09:17:42.349Z,65.45
2022-10-11T09:20:53.672Z,67.28
2022-10-11T09:24:12.124Z,67.32
2022-10-11T09:27:33.076Z,66.77
2022-10-11T09:30:49.308Z,67.35
2022-10-11T09:33:52.573Z,67.22
2022-10-11T09:37:22.894Z,68.12
2022-10-11T09:40:58.908Z,68.37
2022-10-11T09:44:06.643Z,68.00
2022-10-11T09:47:16.478Z,67.66
2022-10-11T09:50:32.572Z,67.04
2022-10-11T09:53:57.714Z,67.54
2022-10-11T09:57:00.131Z,67.91
2022-10-11T10:00:20.680Z,67.80
2022-10-11T10:03:38.158Z,67.87
2022-10-11T10:06:41.096Z,67.56
2022-10-11T10:09:45.084Z,65.36
2022-10-11T10:13:01.991Z,62.83
2022-10-11T10:16:05.649Z,61.01
2022-10-11T10:19:18.861Z,56.03
2022-10-11T10:22:27.321Z,54.53
2022-10-11T10:25:38.459Z,53.78
2022-10-11T10:28:57.139Z,52.04
2022-10-11T10:32:14.262Z,52.49
2022-10-11T10:35:41.470Z,53.50
2022-10-11T10:38:53.188Z,53.65
2022-10-11T10:41:58.777Z,51.52
2022-10-11T10:45:01.643Z,49.67
2022-10-11T10:48:15.839Z,47.68
2022-10-11T10:51:29.424Z,44.94
2022-10-11T10:54:55.628Z,44.31
2022-10-11T10:58:16.380Z,41.64
2022-10-11T11:01:25.293Z,42.03
2022-10-11T11:04:35.811Z,41.63
2022-10-11T11:08:03.957Z,40.50
2022-10-11T11:11:24.588Z,38.23
2022-10-11T11:14:29.748Z,39.75
2022-10-11T11:17:41.653Z,37.58
2022-10-11T11:21:01.347Z,38.11
2022-10-11T11:24:49.509Z,36.73
2022-10-11T11:28:28.311Z,36.42
2022-10-11T11:32:10.240Z,36.19
2022-10-11T11:35:22.992Z,36.15
2022-10-11T11:38:29.940Z,38.09
2022-10-11T11:41:43.673Z,36.90
2022-10-11T11:44:50.847Z,35.71
2022-10-11T11:48:04.132Z,34.86
2022-10-11T11:51:13.174Z,34.29
2022-10-11T11:54:15.332Z,35.27
2022-10-11T11:57:23.547Z,35.29
2022-10-11T12:00:53.473Z,34.84
2022-10-11T12:04:07.372Z,34.05
2022-10-11T12:07:17.632Z,34.14
2022-10-11T12:10:31.539Z,34.25
2022-10-11T12:13:39.692Z,35.01
2022-10-11T12:17:15.697Z,34.59
2022-10-11T12:20:31.532Z,35.51
2022-10-11T12:23:44.518Z,34.36
2022-10-11T12:26:49.049Z,33.79
2022-10-11T12:29:51.450Z,34.14
2022-10-11T12:33:06.832Z,33.68
2022-10-11T12:36:38.845Z,34.44
2022-10-11T12:39:55.647Z,35.72
2022-10-11T12:43:15.957Z,35.49
2022-10-11T12:46:50.590Z,34.36
2022-10-11T12:49:52.748Z,34.76
2022-10-11T12:53:25.124Z,40.64
2022-10-11T12:56:39.326Z,42.22
2022-10-11T12:59:45.086Z,40.42
2022-10-11T13:02:48.186Z,38.85
2022-10-11T13:05:53.753Z,37.17
2022-10-11T13:09:07.611Z,36.76
2022-10-11T13:12:16.178Z,36.08
2022-10-11T13:15:22.278Z,36.13
2022-10-11T13:18:26.496Z,35.35
2022-10-11T13:21:38.625Z,35.50
2022-10-11T13:24:43.812Z,35.03
2022-10-11T13:27:47.237Z,35.33
2022-10-11T13:30:59.281Z,35.35
2022-10-11T13:34:01.435Z,35.60
2022-10-11T13:37:04.064Z,37.02
2022-10-11T13:40:06.993Z,36.26
2022-10-11T13:43:09.342Z,36.73
2022-10-11T13:46:23.535Z,36.26
2022-10-11T13:49:37.263Z,36.50
2022-10-11T13:53:00.371Z,39.19
2022-10-11T13:56:06.020Z,43.99
2022-10-11T13:59:18.272Z,45.78
2022-10-11T14:02:23.869Z,43.33
2022-10-11T14:05:35.431Z,42.12
2022-10-11T14:08:41.475Z,41.29
2022-10-11T14:11:43.681Z,42.93
2022-10-11T14:14:47.947Z,47.27
2022-10-11T14:17:53.145Z,49.37
2022-10-11T14:20:55.351Z,51.80
2022-10-11T14:24:05.129Z,55.21
2022-10-11T14:27:11.458Z,55.86
2022-10-11T14:30:27.269Z,53.01
2022-10-11T14:33:30.207Z,50.40
2022-10-11T14:36:32.464Z,48.67
2022-10-11T14:39:34.691Z,52.18
2022-10-11T14:42:36.827Z,55.06
2022-10-11T14:45:39.139Z,57.34
2022-10-11T14:48:55.116Z,58.27
2022-10-11T14:51:59.022Z,57.71
2022-10-11T14:55:01.909Z,58.45
2022-10-11T14:58:06.322Z,59.05
2022-10-11T15:01:15.935Z,59.92
2022-10-11T15:04:18.916Z,61.14
2022-10-11T15:07:21.103Z,61.73
2022-10-11T15:10:27.731Z,61.60
2022-10-11T15:13:29.917Z,60.40
2022-10-11T15:16:32.506Z,64.14
2022-10-11T15:19:36.689Z,67.05
2022-10-11T15:22:38.900Z,67.57
2022-10-11T15:25:41.979Z,68.99
2022-10-11T15:28:44.617Z,68.89
2022-10-11T15:31:46.811Z,70.40
2022-10-11T15:34:49.050Z,71.67
2022-10-11T15:37:56.800Z,72.40
2022-10-11T15:40:59.655Z,71.98
2022-10-11T15:44:01.818Z,74.03
2022-10-11T15:47:04.154Z,75.63
2022-10-11T15:50:39.611Z,76.11
2022-10-11T15:53:42.163Z,76.87
2022-10-11T15:56:44.357Z,77.13
2022-10-11T15:59:46.550Z,76.98
2022-10-11T16:02:50.863Z,76.60
2022-10-11T16:05:54.218Z,77.12
2022-10-11T16:08:56.353Z,77.50
2022-10-11T16:12:02.074Z,78.14
2022-10-11T16:15:05.077Z,78.15
2022-10-11T16:18:08.949Z,78.31
2022-10-11T16:21:15.488Z,79.16
2022-10-11T16:24:17.719Z,79.82
2022-10-11T16:27:19.945Z,81.17
2022-10-11T16:30:22.439Z,81.33
2022-10-11T16:33:25.394Z,82.13
2022-10-11T16:36:36.951Z,82.32
2022-10-11T16:39:40.042Z,82.67
2022-10-11T16:42:42.238Z,82.69
2022-10-11T16:45:44.385Z,83.61
2022-10-11T16:48:46.889Z,83.67
2022-10-11T16:51:50.627Z,83.74
2022-10-11T16:54:52.896Z,83.61
2022-10-11T16:57:55.032Z,83.71
2022-10-11T17:00:57.288Z,83.58
2022-10-11T17:03:59.900Z,84.12
2022-10-11T17:07:02.115Z,84.18
2022-10-11T17:10:05.140Z,84.48
2022-10-11T17:13:07.344Z,84.75
2022-10-11T17:16:09.884Z,85.78
2022-10-11T17:19:13.969Z,85.59
2022-10-11T17:22:18.562Z,86.25
2022-10-11T17:25:21.539Z,86.31
2022-10-11T17:28:23.921Z,86.16
2022-10-11T17:31:27.964Z,85.94
2022-10-11T17:34:30.849Z,86.38
2022-10-11T17:37:34.198Z,86.60
2022-10-11T17:40:36.344Z,86.95
2022-10-11T17:43:38.960Z,87.17
2022-10-11T17:46:41.123Z,89.05
2022-10-11T17:49:43.394Z,89.05
2022-10-11T17:52:45.885Z,88.93
2022-10-11T17:55:53.373Z,88.77
2022-10-11T17:59:03.217Z,89.24
2022-10-11T18:02:05.428Z,89.70
2022-10-11T18:05:08.028Z,90.21
2022-10-11T18:08:11.124Z,89.62
2022-10-11T18:11:17.489Z,89.57
2022-10-11T18:14:19.997Z,89.69
2022-10-11T18:17:22.141Z,89.87
2022-10-11T18:20:24.454Z,89.97
2022-10-11T18:23:27.074Z,90.38
2022-10-11T18:26:30.645Z,90.78
2022-10-11T18:29:33.140Z,91.51
2022-10-11T18:32:35.473Z,92.01
2022-10-11T18:35:37.814Z,91.99
2022-10-11T18:38:43.975Z,91.43
2022-10-11T18:41:46.118Z,91.10
2022-10-11T18:44:48.318Z,91.03
2022-10-11T18:47:51.000Z,91.00
2022-10-11T18:51:09.427Z,90.77
2022-10-11T18:54:15.357Z,90.52
2022-10-11T18:57:20.752Z,90.76
2022-10-11T19:00:40.304Z,91.08
2022-10-11T19:03:45.146Z,91.03
2022-10-11T19:06:49.121Z,90.27
2022-10-11T19:09:51.471Z,90.12
2022-10-11T19:12:53.614Z,90.48
2022-10-11T19:15:55.811Z,90.94
2022-10-11T19:18:58.577Z,90.29
2022-10-11T19:22:03.247Z,89.40
2022-10-11T19:25:06.043Z,90.20
2022-10-11T19:28:11.310Z,91.81
2022-10-11T19:31:17.110Z,91.60
2022-10-11T19:34:20.096Z,90.53
2022-10-11T19:37:22.327Z,89.93
2022-10-11T19:40:24.965Z,90.21
2022-10-11T19:43:27.630Z,90.34
2022-10-11T19:46:50.435Z,90.85
2022-10-11T19:49:52.080Z,90.70
2022-10-11T19:52:54.316Z,91.06
2022-10-11T19:56:02.961Z,91.28
2022-10-11T19:59:08.713Z,91.27
2022-10-11T20:02:12.859Z,91.04
2022-10-11T20:05:15.363Z,91.10
2022-10-11T20:08:17.533Z,91.54
2022-10-11T20:11:20.876Z,91.83
2022-10-11T20:14:23.070Z,91.80
2022-10-11T20:17:45.376Z,91.87
2022-10-11T20:20:54.634Z,91.56
2022-10-11T20:24:02.537Z,91.95
2022-10-11T20:27:05.565Z,91.42
2022-10-11T20:30:08.254Z,91.74
2022-10-11T20:33:10.462Z,91.39
2022-10-11T20:36:18.489Z,91.51
2022-10-11T20:39:20.695Z,91.42
2022-10-11T20:42:27.598Z,91.26
2022-10-11T20:45:31.791Z,91.23
2022-10-11T20:48:36.359Z,91.07
2022-10-11T20:51:41.422Z,92.33
2022-10-11T20:54:43.676Z,92.89
2022-10-11T20:57:45.823Z,91.97
2022-10-11T21:00:48.588Z,92.37
2022-10-11T21:03:50.719Z,93.10
2022-10-11T21:06:52.907Z,92.46
2022-10-11T21:09:55.040Z,91.97
2022-10-11T21:12:57.931Z,92.02
2022-10-11T21:16:14.858Z,93.41
2022-10-11T21:19:17.126Z,93.08
2022-10-11T21:22:19.664Z,93.08
2022-10-11T21:25:21.869Z,92.72
2022-10-11T21:28:24.025Z,92.72
2022-10-11T21:31:31.056Z,92.61
2022-10-11T21:34:35.840Z,92.68
2022-10-11T21:37:38.049Z,92.68
2022-10-11T21:40:40.238Z,92.59
2022-10-11T21:43:42.527Z,92.87
2022-10-11T21:50:08.871Z,92.28
2022-10-11T21:53:11.261Z,92.44
2022-10-11T21:56:13.515Z,92.74
2022-10-11T21:59:15.825Z,92.96
2022-10-11T22:02:18.101Z,92.84
2022-10-11T22:05:20.304Z,92.77
2022-10-11T22:08:22.974Z,92.32
2022-10-11T22:11:25.376Z,93.07
2022-10-11T22:14:28.420Z,94.04
2022-10-11T22:17:30.558Z,94.40
2022-10-11T22:20:33.459Z,94.12
2022-10-11T22:23:36.095Z,93.84
2022-10-11T22:26:38.363Z,94.23
2022-10-11T22:29:40.498Z,93.79
2022-10-11T22:32:42.688Z,94.11
2022-10-11T22:35:44.832Z,94.14
2022-10-11T22:38:47.233Z,94.36
2022-10-11T22:41:49.417Z,94.09
2022-10-11T22:44:51.605Z,94.11
2022-10-11T22:47:53.788Z,93.50
2022-10-11T22:50:56.044Z,92.97
2022-10-11T22:53:58.191Z,92.48
2022-10-11T22:57:00.396Z,92.22
2022-10-11T23:00:02.566Z,92.03
2022-10-11T23:03:07.103Z,92.44
2022-10-11T23:06:10.891Z,92.90
2022-10-11T23:09:13.144Z,92.77
2022-10-11T23:12:15.319Z,92.86
2022-10-11T23:15:17.736Z,92.75
2022-10-11T23:18:19.895Z,93.60
2022-10-11T23:21:22.240Z,94.19
2022-10-11T23:24:24.423Z,93.66
2022-10-11T23:27:28.205Z,92.86
2022-10-11T23:30:30.684Z,92.95
2022-10-11T23:33:32.951Z,92.97
2022-10-11T23:36:35.359Z,92.94
2022-10-11T23:39:37.595Z,93.38
2022-10-11T23:42:46.014Z,92.97
2022-10-11T23:45:48.251Z,92.83
2022-10-11T23:48:50.625Z,92.77
2022-10-11T23:51:52.824Z,93.19
2022-10-11T23:54:56.180Z,93.70
2022-10-11T23:57:58.392Z,92.95
